Time;durP1;ratioP1;P1;durP2;ratioP2;P2;SDS_P1;SDS_P2;PMS_P1;PMS_P2;Temp;Humidity;BMP_temperature;BMP_pressure;BME280_temperature;BME280_humidity;BME280_pressure;Samples;Min_cycle;Max_cycle;Signal;HPM_P1;HPM_P2
2021/01/30 00:00:25;;;;;;;;;;;19.00;56.10;;;;;;5033959;28;1673;-67
2021/01/30 00:02:51;;;;;;;;;;;19.00;56.10;;;;;;5016891;28;973;-67
2021/01/30 00:05:16;;;;;;;;;;;19.00;56.10;;;;;;5047200;28;843;-66
2021/01/30 00:07:42;;;;;;;;;;;19.00;56.10;;;;;;5024637;28;1477;-66
2021/01/30 00:10:07;;;;;;;;;;;19.00;56.20;;;;;;5039124;28;1470;-66
2021/01/30 00:12:33;;;;;;;;;;;19.00;56.20;;;;;;5016484;28;1054;-67
2021/01/30 00:14:58;;;;;;;;;;;19.00;56.20;;;;;;5048039;28;1957;-66
2021/01/30 00:17:24;;;;;;;;;;;18.90;56.20;;;;;;5027794;28;1524;-66
2021/01/30 00:19:49;;;;;;;;;;;18.90;56.20;;;;;;5034296;28;1392;-66
2021/01/30 00:22:16;;;;;;;;;;;19.00;56.20;;;;;;5029107;28;1408;-66
2021/01/30 00:24:46;;;;;;;;;;;18.90;56.20;;;;;;5034684;28;1351;-65
2021/01/30 00:27:13;;;;;;;;;;;18.90;56.20;;;;;;5045515;28;1383;-66
2021/01/30 00:29:38;;;;;;;;;;;18.90;56.20;;;;;;5016154;28;1463;-67
2021/01/30 00:32:04;;;;;;;;;;;18.90;56.20;;;;;;5016004;28;1707;-65
2021/01/30 00:34:30;;;;;;;;;;;18.90;56.30;;;;;;5033191;28;1902;-66
2021/01/30 00:36:56;;;;;;;;;;;18.90;56.30;;;;;;5033269;28;1473;-67
2021/01/30 00:39:21;;;;;;;;;;;18.90;56.30;;;;;;5033226;28;1666;-70
2021/01/30 00:41:47;;;;;;;;;;;18.90;56.30;;;;;;5016083;28;1206;-66
2021/01/30 00:44:12;;;;;;;;;;;18.90;56.30;;;;;;5029724;28;1642;-65
2021/01/30 00:46:38;;;;;;;;;;;18.90;56.30;;;;;;5035167;28;1714;-67
2021/01/30 00:49:03;;;;;;;;;;;18.90;56.30;;;;;;5038280;28;1264;-69
2021/01/30 00:51:29;;;;;;;;;;;18.90;56.20;;;;;;5033428;28;1209;-66
2021/01/30 00:53:54;;;;;;;;;;;18.90;56.20;;;;;;5017089;28;1148;-67
2021/01/30 00:56:20;;;;;;;;;;;18.90;56.20;;;;;;5026631;28;1907;-67
2021/01/30 00:58:45;;;;;;;;;;;18.90;56.20;;;;;;5029090;28;1497;-69
2021/01/30 01:01:11;;;;;;;;;;;18.90;56.20;;;;;;5041709;28;1291;-67
2021/01/30 01:03:36;;;;;;;;;;;18.90;56.20;;;;;;5039702;28;827;-66
2021/01/30 01:06:02;;;;;;;;;;;18.90;56.20;;;;;;5026197;28;1482;-66
2021/01/30 01:08:28;;;;;;;;;;;18.90;56.20;;;;;;5047453;28;956;-65
2021/01/30 01:10:53;;;;;;;;;;;18.90;56.20;;;;;;5035454;28;1283;-65
2021/01/30 01:13:19;;;;;;;;;;;18.90;56.20;;;;;;5035170;28;1447;-65
2021/01/30 01:15:44;;;;;;;;;;;18.90;56.20;;;;;;5051976;28;1963;-65
2021/01/30 01:18:10;;;;;;;;;;;18.90;56.20;;;;;;5021171;28;1732;-68
2021/01/30 01:20:35;;;;;;;;;;;18.90;56.20;;;;;;5014785;28;1453;-65
2021/01/30 01:23:01;;;;;;;;;;;18.90;56.20;;;;;;5032823;28;1527;-65
2021/01/30 01:25:26;;;;;;;;;;;18.90;56.20;;;;;;5015210;28;1349;-67
2021/01/30 01:27:51;;;;;;;;;;;18.90;56.20;;;;;;5014760;28;1314;-66
2021/01/30 01:30:17;;;;;;;;;;;18.90;56.20;;;;;;5032636;28;1537;-66
2021/01/30 01:32:43;;;;;;;;;;;18.90;56.20;;;;;;5015520;28;1347;-66
2021/01/30 01:35:11;;;;;;;;;;;18.90;56.20;;;;;;5032067;28;1898;-66
2021/01/30 01:37:37;;;;;;;;;;;18.90;56.30;;;;;;5014856;28;1281;-66
2021/01/30 01:40:03;;;;;;;;;;;18.90;56.30;;;;;;5032527;28;1371;-68
2021/01/30 01:42:28;;;;;;;;;;;18.90;56.20;;;;;;5047725;28;1261;-68
2021/01/30 01:44:54;;;;;;;;;;;18.90;56.30;;;;;;5032183;28;1467;-65
2021/01/30 01:47:25;;;;;;;;;;;18.90;56.30;;;;;;5032017;28;1349;-65
2021/01/30 01:49:51;;;;;;;;;;;18.90;56.30;;;;;;5032710;28;1404;-67
2021/01/30 01:52:20;;;;;;;;;;;18.90;56.30;;;;;;5033656;28;1563;-65
2021/01/30 01:54:46;;;;;;;;;;;18.90;56.40;;;;;;5051681;28;1895;-66
2021/01/30 01:57:12;;;;;;;;;;;18.90;56.30;;;;;;5032072;28;1692;-65
2021/01/30 01:59:42;;;;;;;;;;;18.90;56.40;;;;;;5015006;28;1100;-65
2021/01/30 02:02:08;;;;;;;;;;;18.90;56.40;;;;;;5014904;28;1358;-65
2021/01/30 02:04:33;;;;;;;;;;;18.90;56.40;;;;;;5003352;28;2552;-66
2021/01/30 02:06:59;;;;;;;;;;;18.90;56.40;;;;;;5014069;28;1711;-66
2021/01/30 02:09:24;;;;;;;;;;;18.90;56.40;;;;;;5014740;28;1717;-65
2021/01/30 02:12:03;;;;;;;;;;;18.90;56.40;;;;;;5017066;28;1216;-66
2021/01/30 02:14:30;;;;;;;;;;;18.90;56.50;;;;;;5023611;28;1898;-69
2021/01/30 02:17:04;;;;;;;;;;;18.90;56.40;;;;;;5019867;28;1026;-68
2021/01/30 02:19:48;;;;;;;;;;;18.90;56.50;;;;;;5056466;28;1381;-65
2021/01/30 02:22:25;;;;;;;;;;;18.80;56.50;;;;;;5038690;28;1204;-67
2021/01/30 02:25:09;;;;;;;;;;;18.80;56.50;;;;;;5055371;28;1375;-65
2021/01/30 02:27:40;;;;;;;;;;;18.80;56.50;;;;;;5055399;28;1669;-65
2021/01/30 02:30:15;;;;;;;;;;;18.80;56.50;;;;;;5056152;28;1713;-65
2021/01/30 02:32:40;;;;;;;;;;;18.80;56.50;;;;;;5055688;28;1712;-65
2021/01/30 02:35:18;;;;;;;;;;;18.80;56.50;;;;;;5055611;28;1898;-65
2021/01/30 02:37:51;;;;;;;;;;;18.80;56.50;;;;;;5039300;28;1163;-66
2021/01/30 02:40:18;;;;;;;;;;;18.80;56.50;;;;;;5035471;28;1365;-65
2021/01/30 02:42:49;;;;;;;;;;;18.80;56.50;;;;;;5017839;28;1723;-66
2021/01/30 02:45:17;;;;;;;;;;;18.90;56.50;;;;;;5017764;28;1304;-65
2021/01/30 02:47:44;;;;;;;;;;;18.90;56.40;;;;;;5017288;28;1703;-65
2021/01/30 02:50:13;;;;;;;;;;;18.90;56.30;;;;;;5017939;28;1677;-65
2021/01/30 02:52:38;;;;;;;;;;;18.90;56.20;;;;;;5022667;28;1640;-65
2021/01/30 02:55:05;;;;;;;;;;;18.90;56.00;;;;;;5036918;28;1910;-65
2021/01/30 02:57:31;;;;;;;;;;;19.00;56.00;;;;;;5037011;28;1731;-66
2021/01/30 02:59:56;;;;;;;;;;;19.00;55.80;;;;;;5026024;28;1696;-65
2021/01/30 03:02:22;;;;;;;;;;;19.10;55.80;;;;;;5017817;28;1240;-67
2021/01/30 03:04:51;;;;;;;;;;;19.10;55.70;;;;;;5016275;28;1416;-67
2021/01/30 03:07:23;;;;;;;;;;;19.10;55.60;;;;;;5016682;28;1159;-64
2021/01/30 03:09:54;;;;;;;;;;;19.10;55.50;;;;;;5035027;28;1401;-65
2021/01/30 03:12:30;;;;;;;;;;;19.20;55.50;;;;;;5017674;28;1702;-64
2021/01/30 03:14:56;;;;;;;;;;;19.20;55.50;;;;;;5034347;28;1902;-68
2021/01/30 03:17:22;;;;;;;;;;;19.20;55.40;;;;;;5018975;28;1564;-68
2021/01/30 03:19:48;;;;;;;;;;;19.20;55.40;;;;;;5037613;28;1405;-68
2021/01/30 03:22:13;;;;;;;;;;;19.20;55.30;;;;;;5042967;28;1287;-65
2021/01/30 03:24:44;;;;;;;;;;;19.30;55.30;;;;;;5039090;28;1459;-65
2021/01/30 03:27:19;;;;;;;;;;;19.30;55.30;;;;;;5026004;28;1147;-65
2021/01/30 03:29:44;;;;;;;;;;;19.30;55.30;;;;;;5036221;28;1319;-68
2021/01/30 03:32:09;;;;;;;;;;;19.30;55.30;;;;;;5044578;28;1549;-66
2021/01/30 03:34:35;;;;;;;;;;;19.30;55.30;;;;;;5048140;28;1886;-66
2021/01/30 03:37:00;;;;;;;;;;;19.30;55.30;;;;;;5017058;28;1666;-68
2021/01/30 03:39:26;;;;;;;;;;;19.30;55.30;;;;;;5048125;28;1084;-66
2021/01/30 03:41:51;;;;;;;;;;;19.30;55.30;;;;;;5086465;23;1945;-66
2021/01/30 03:44:17;;;;;;;;;;;19.30;55.30;;;;;;5100358;28;928;-66
2021/01/30 03:46:42;;;;;;;;;;;19.30;55.30;;;;;;5093063;28;929;-66
2021/01/30 03:49:07;;;;;;;;;;;19.30;55.30;;;;;;5093577;28;1405;-66
2021/01/30 03:51:33;;;;;;;;;;;19.30;55.30;;;;;;5093477;28;1589;-66
2021/01/30 03:53:58;;;;;;;;;;;19.30;55.40;;;;;;5076366;28;1696;-67
2021/01/30 03:56:24;;;;;;;;;;;19.30;55.40;;;;;;5093941;28;1922;-68
2021/01/30 03:58:49;;;;;;;;;;;19.30;55.40;;;;;;5078301;28;1358;-68
2021/01/30 04:01:15;;;;;;;;;;;19.30;55.40;;;;;;5072931;28;1394;-68
2021/01/30 04:03:40;;;;;;;;;;;19.30;56.00;;;;;;5056111;28;1661;-68
2021/01/30 04:06:10;;;;;;;;;;;19.20;55.40;;;;;;5074042;28;1464;-68
2021/01/30 04:08:36;;;;;;;;;;;19.30;55.50;;;;;;5072861;28;1063;-68
2021/01/30 04:11:01;;;;;;;;;;;19.20;55.40;;;;;;5072797;28;1308;-69
2021/01/30 04:13:26;;;;;;;;;;;19.20;55.40;;;;;;5073661;28;1141;-68
2021/01/30 04:15:52;;;;;;;;;;;19.30;55.50;;;;;;5079670;28;1902;-68
2021/01/30 04:18:17;;;;;;;;;;;19.20;55.40;;;;;;5092110;28;1262;-68
2021/01/30 04:20:43;;;;;;;;;;;19.30;55.50;;;;;;5074170;28;1331;-68
2021/01/30 04:23:08;;;;;;;;;;;19.20;55.50;;;;;;5073633;28;1301;-68
2021/01/30 04:25:34;;;;;;;;;;;19.20;55.50;;;;;;5073641;28;1153;-68
2021/01/30 04:27:59;;;;;;;;;;;19.20;55.50;;;;;;5073276;28;1260;-68
2021/01/30 04:30:26;;;;;;;;;;;19.20;55.50;;;;;;5071391;28;1389;-68
2021/01/30 04:32:51;;;;;;;;;;;19.20;55.60;;;;;;5072564;28;1310;-68
2021/01/30 04:35:17;;;;;;;;;;;19.20;55.50;;;;;;5072753;28;1959;-68
2021/01/30 04:37:43;;;;;;;;;;;19.20;55.50;;;;;;5073364;28;1234;-68
2021/01/30 04:40:20;;;;;;;;;;;19.20;55.60;;;;;;5072228;28;1082;-68
2021/01/30 04:42:48;;;;;;;;;;;19.20;55.60;;;;;;5072321;28;1320;-68
2021/01/30 04:45:19;;;;;;;;;;;19.20;55.60;;;;;;5071790;28;1300;-68
2021/01/30 04:47:46;;;;;;;;;;;19.20;55.60;;;;;;5071414;28;1292;-68
2021/01/30 04:50:16;;;;;;;;;;;19.20;55.60;;;;;;5072059;28;1360;-68
2021/01/30 04:52:45;;;;;;;;;;;19.20;55.70;;;;;;5070598;28;1523;-68
2021/01/30 04:55:13;;;;;;;;;;;19.20;55.70;;;;;;5062859;28;1906;-68
2021/01/30 04:57:47;;;;;;;;;;;19.20;55.70;;;;;;5078333;28;1019;-68
2021/01/30 05:00:32;;;;;;;;;;;19.20;55.70;;;;;;5091385;28;1320;-68
2021/01/30 05:03:01;;;;;;;;;;;19.20;55.70;;;;;;5073080;28;1251;-68
2021/01/30 05:05:27;;;;;;;;;;;19.20;56.30;;;;;;5071189;28;1071;-68
2021/01/30 05:07:53;;;;;;;;;;;19.20;55.70;;;;;;5071294;28;1144;-68
2021/01/30 05:10:26;;;;;;;;;;;19.20;55.70;;;;;;5072936;28;1150;-68
2021/01/30 05:12:56;;;;;;;;;;;19.10;55.70;;;;;;5054908;28;1356;-68
2021/01/30 05:15:37;;;;;;;;;;;19.10;55.70;;;;;;5063850;28;1957;-65
2021/01/30 05:18:35;;;;;;;;;;;19.20;55.80;;;;;;5084867;28;916;-66
2021/01/30 05:21:04;;;;;;;;;;;19.10;55.70;;;;;;5058213;28;1311;-66
2021/01/30 05:23:31;;;;;;;;;;;19.10;55.70;;;;;;5077779;28;1364;-66
2021/01/30 05:26:11;;;;;;;;;;;19.10;55.80;;;;;;5076191;28;1303;-68
2021/01/30 05:28:44;;;;;;;;;;;19.10;55.80;;;;;;5078382;28;1294;-66
2021/01/30 05:31:15;;;;;;;;;;;19.10;55.80;;;;;;5074736;28;1384;-66
2021/01/30 05:33:52;;;;;;;;;;;19.10;55.80;;;;;;5090445;28;1105;-66
2021/01/30 05:36:21;;;;;;;;;;;19.10;55.80;;;;;;5074902;28;1894;-67
2021/01/30 05:39:06;;;;;;;;;;;19.10;55.80;;;;;;5070068;28;1272;-67
2021/01/30 05:41:37;;;;;;;;;;;19.10;55.80;;;;;;5070113;28;1442;-67
2021/01/30 05:44:07;;;;;;;;;;;19.10;55.80;;;;;;5071078;28;1333;-67
2021/01/30 05:46:32;;;;;;;;;;;19.10;55.90;;;;;;5076883;28;1384;-66
2021/01/30 05:49:00;;;;;;;;;;;19.10;55.90;;;;;;5090123;28;1300;-66
2021/01/30 05:51:30;;;;;;;;;;;19.10;55.90;;;;;;5089699;28;1382;-66
2021/01/30 05:53:55;;;;;;;;;;;19.10;55.90;;;;;;5079031;28;1299;-66
2021/01/30 05:56:21;;;;;;;;;;;19.10;55.90;;;;;;5073547;28;1968;-66
2021/01/30 05:58:46;;;;;;;;;;;19.10;55.90;;;;;;5089207;28;1137;-66
2021/01/30 06:01:15;;;;;;;;;;;19.10;55.90;;;;;;5073963;28;1327;-66
2021/01/30 06:03:53;;;;;;;;;;;19.10;55.90;;;;;;5074723;28;1341;-67
2021/01/30 06:06:19;;;;;;;;;;;19.10;55.90;;;;;;5074746;28;1294;-66
2021/01/30 06:08:53;;;;;;;;;;;19.10;55.90;;;;;;5057223;28;1329;-67
2021/01/30 06:11:18;;;;;;;;;;;19.10;55.90;;;;;;5074034;28;1374;-67
2021/01/30 06:14:00;;;;;;;;;;;19.10;55.90;;;;;;5075208;28;1324;-67
2021/01/30 06:16:34;;;;;;;;;;;19.10;55.90;;;;;;5077104;28;2253;-68
2021/01/30 06:19:20;;;;;;;;;;;19.10;55.90;;;;;;5074751;28;1281;-67
2021/01/30 06:21:46;;;;;;;;;;;19.10;55.90;;;;;;5078570;28;1293;-67
2021/01/30 06:24:28;;;;;;;;;;;19.10;55.90;;;;;;5095366;28;1391;-66
2021/01/30 06:26:54;;;;;;;;;;;19.10;56.50;;;;;;5094140;28;1674;-66
2021/01/30 06:29:35;;;;;;;;;;;19.10;55.90;;;;;;5093308;28;1310;-67
2021/01/30 06:32:07;;;;;;;;;;;19.10;55.90;;;;;;5095762;28;1364;-67
2021/01/30 06:34:36;;;;;;;;;;;19.10;55.90;;;;;;5092681;28;1902;-67
2021/01/30 06:37:02;;;;;;;;;;;19.10;55.90;;;;;;5084269;28;1327;-67
2021/01/30 06:39:28;;;;;;;;;;;19.10;56.00;;;;;;5074549;28;1383;-66
2021/01/30 06:41:55;;;;;;;;;;;19.10;56.00;;;;;;5072730;28;1277;-67
2021/01/30 06:44:26;;;;;;;;;;;19.10;55.90;;;;;;5074921;28;1359;-68
2021/01/30 06:47:11;;;;;;;;;;;19.10;55.90;;;;;;5073025;28;1379;-68
2021/01/30 06:49:43;;;;;;;;;;;19.10;55.80;;;;;;5073952;28;1324;-68
2021/01/30 06:52:10;;;;;;;;;;;19.20;55.80;;;;;;5086143;28;1291;-68
2021/01/30 06:54:36;;;;;;;;;;;19.20;55.70;;;;;;5072294;28;1963;-67
2021/01/30 06:57:10;;;;;;;;;;;19.20;55.60;;;;;;5072719;28;1292;-67
2021/01/30 06:59:37;;;;;;;;;;;19.20;55.50;;;;;;5084850;28;1075;-68
2021/01/30 07:02:03;;;;;;;;;;;19.20;55.50;;;;;;5074948;28;1347;-68
2021/01/30 07:04:36;;;;;;;;;;;19.20;55.40;;;;;;5072214;28;1396;-68
2021/01/30 07:07:07;;;;;;;;;;;19.20;55.50;;;;;;5073300;28;1304;-68
2021/01/30 07:09:33;;;;;;;;;;;19.20;55.50;;;;;;5073972;28;1293;-67
2021/01/30 07:12:13;;;;;;;;;;;19.30;55.50;;;;;;5075269;28;1304;-68
2021/01/30 07:14:57;;;;;;;;;;;19.30;55.50;;;;;;5079893;28;1886;-69
2021/01/30 07:17:35;;;;;;;;;;;19.30;55.50;;;;;;5082631;28;1035;-67
2021/01/30 07:20:11;;;;;;;;;;;19.30;55.50;;;;;;5075479;28;1246;-66
2021/01/30 07:22:43;;;;;;;;;;;19.30;55.50;;;;;;5088028;28;1297;-67
2021/01/30 07:25:16;;;;;;;;;;;19.30;55.50;;;;;;5067114;28;1257;-67
2021/01/30 07:27:44;;;;;;;;;;;19.30;55.50;;;;;;5085806;28;1356;-68
2021/01/30 07:30:17;;;;;;;;;;;19.30;55.50;;;;;;5092910;28;1320;-68
2021/01/30 07:32:46;;;;;;;;;;;19.30;55.50;;;;;;5087906;28;1320;-67
2021/01/30 07:35:20;;;;;;;;;;;19.30;56.00;;;;;;5085435;28;1897;-68
2021/01/30 07:37:56;;;;;;;;;;;19.30;55.50;;;;;;5076053;28;1094;-67
2021/01/30 07:40:24;;;;;;;;;;;19.30;55.50;;;;;;5073345;28;1300;-68
2021/01/30 07:42:57;;;;;;;;;;;19.20;56.00;;;;;;5072299;28;1187;-69
2021/01/30 07:45:24;;;;;;;;;;;19.30;55.50;;;;;;5072916;28;1342;-69
2021/01/30 07:48:03;;;;;;;;;;;19.30;55.50;;;;;;5086681;28;1300;-69
2021/01/30 07:50:29;;;;;;;;;;;19.20;55.50;;;;;;5084414;28;1044;-69
2021/01/30 07:52:57;;;;;;;;;;;19.20;55.50;;;;;;5085642;28;1288;-68
2021/01/30 07:55:23;;;;;;;;;;;19.20;55.50;;;;;;5071365;28;1882;-69
2021/01/30 07:58:10;;;;;;;;;;;19.20;55.50;;;;;;5079305;28;954;-69
2021/01/30 08:00:38;;;;;;;;;;;19.20;55.50;;;;;;5093059;28;1306;-67
2021/01/30 08:03:30;;;;;;;;;;;19.20;55.50;;;;;;5092950;28;1284;-68
2021/01/30 08:05:58;;;;;;;;;;;19.20;55.50;;;;;;5087058;28;2391;-68
2021/01/30 08:08:26;;;;;;;;;;;19.20;55.50;;;;;;5078691;28;1996;-68
2021/01/30 08:11:02;;;;;;;;;;;19.20;55.50;;;;;;5091921;28;1281;-67
2021/01/30 08:13:31;;;;;;;;;;;19.20;55.60;;;;;;5076579;28;1680;-68
2021/01/30 08:16:02;;;;;;;;;;;19.20;55.60;;;;;;5077140;28;1903;-67
2021/01/30 08:18:27;;;;;;;;;;;19.20;55.60;;;;;;5091251;28;1253;-68
2021/01/30 08:20:57;;;;;;;;;;;19.20;55.60;;;;;;5094347;28;1359;-67
2021/01/30 08:23:42;;;;;;;;;;;19.20;55.60;;;;;;5092874;28;1345;-68
2021/01/30 08:26:43;;;;;;;;;;;19.20;55.60;;;;;;5093652;28;1369;-68
2021/01/30 08:29:12;;;;;;;;;;;19.20;55.60;;;;;;5091864;28;1334;-67
2021/01/30 08:31:37;;;;;;;;;;;19.20;55.60;;;;;;5088734;28;1298;-68
2021/01/30 08:34:26;;;;;;;;;;;19.20;55.70;;;;;;5093779;28;1346;-67
2021/01/30 08:36:57;;;;;;;;;;;19.20;55.70;;;;;;5093019;28;1263;-67
2021/01/30 08:39:33;;;;;;;;;;;19.20;55.70;;;;;;5094099;28;1336;-68
2021/01/30 08:42:15;;;;;;;;;;;19.20;55.70;;;;;;5092373;28;1323;-67
2021/01/30 08:44:50;;;;;;;;;;;19.20;55.70;;;;;;5092002;28;1402;-67
2021/01/30 08:47:18;;;;;;;;;;;19.10;55.70;;;;;;5093609;28;1289;-68
2021/01/30 08:50:02;;;;;;;;;;;19.20;55.70;;;;;;5093849;28;1320;-68
2021/01/30 08:52:35;;;;;;;;;;;19.10;55.70;;;;;;5090429;28;1359;-67
2021/01/30 08:55:20;;;;;;;;;;;19.10;55.70;;;;;;5072154;28;1902;-67
2021/01/30 08:57:45;;;;;;;;;;;19.10;55.70;;;;;;5073575;28;1262;-67
2021/01/30 09:00:13;;;;;;;;;;;19.10;55.70;;;;;;5073281;28;1316;-68
2021/01/30 09:02:38;;;;;;;;;;;19.10;55.70;;;;;;5074048;28;1313;-67
2021/01/30 09:05:10;;;;;;;;;;;19.10;55.80;;;;;;5072925;28;1261;-67
2021/01/30 09:07:51;;;;;;;;;;;19.10;55.80;;;;;;5073196;28;1092;-67
2021/01/30 09:10:16;;;;;;;;;;;19.10;55.80;;;;;;5072313;28;1308;-67
2021/01/30 09:12:52;;;;;;;;;;;19.10;55.80;;;;;;5072975;28;1304;-67
2021/01/30 09:15:36;;;;;;;;;;;19.10;55.80;;;;;;5072332;28;1905;-67
2021/01/30 09:18:02;;;;;;;;;;;19.10;55.80;;;;;;5092795;28;1412;-67
2021/01/30 09:20:29;;;;;;;;;;;19.10;55.80;;;;;;5068024;28;1129;-68
2021/01/30 09:23:00;;;;;;;;;;;19.10;55.80;;;;;;5071288;28;1332;-68
2021/01/30 09:25:25;;;;;;;;;;;19.10;55.80;;;;;;5071290;28;1099;-67
2021/01/30 09:28:26;;;;;;;;;;;19.10;55.80;;;;;;5072573;28;1291;-68
2021/01/30 09:30:51;;;;;;;;;;;19.10;55.80;;;;;;5042419;28;1387;-67
2021/01/30 09:33:20;;;;;;;;;;;19.10;55.80;;;;;;5073192;28;1337;-68
2021/01/30 09:35:45;;;;;;;;;;;19.10;56.40;;;;;;5091370;28;1879;-67
2021/01/30 09:38:24;;;;;;;;;;;19.10;55.80;;;;;;5092692;28;1300;-67
2021/01/30 09:41:04;;;;;;;;;;;19.10;55.80;;;;;;5091162;28;1362;-68
2021/01/30 09:43:29;;;;;;;;;;;19.10;55.80;;;;;;5091927;28;1406;-67
2021/01/30 09:45:54;;;;;;;;;;;19.10;55.80;;;;;;5091686;28;1302;-67
2021/01/30 09:48:20;;;;;;;;;;;19.10;55.80;;;;;;5092803;28;1161;-67
2021/01/30 09:50:52;;;;;;;;;;;19.10;55.90;;;;;;5091327;28;1367;-67
2021/01/30 09:53:28;;;;;;;;;;;19.10;55.80;;;;;;5081469;28;1292;-67
2021/01/30 09:55:55;;;;;;;;;;;19.10;55.80;;;;;;5070536;28;1906;-67
2021/01/30 09:58:21;;;;;;;;;;;19.10;55.80;;;;;;5082713;28;969;-67
2021/01/30 10:00:46;;;;;;;;;;;19.10;55.80;;;;;;5087029;28;1478;-67
2021/01/30 10:03:19;;;;;;;;;;;19.10;55.80;;;;;;5072528;28;1296;-67
2021/01/30 10:05:46;;;;;;;;;;;19.10;55.80;;;;;;5091599;28;1193;-67
2021/01/30 10:08:12;;;;;;;;;;;19.20;55.70;;;;;;5079344;28;1288;-67
2021/01/30 10:10:37;;;;;;;;;;;19.20;55.70;;;;;;5072344;28;1848;-67
2021/01/30 10:13:03;;;;;;;;;;;19.30;55.60;;;;;;5083411;28;1110;-67
2021/01/30 10:15:29;;;;;;;;;;;19.40;55.50;;;;;;5087356;28;1901;-67
2021/01/30 10:17:55;;;;;;;;;;;19.50;55.30;;;;;;5092147;28;1292;-68
2021/01/30 10:20:20;;;;;;;;;;;19.60;55.00;;;;;;5076812;28;1393;-67
2021/01/30 10:22:47;;;;;;;;;;;19.70;54.80;;;;;;5085971;28;1344;-68
2021/01/30 10:25:20;;;;;;;;;;;19.80;54.60;;;;;;5090568;28;1290;-68
2021/01/30 10:27:45;;;;;;;;;;;19.90;54.40;;;;;;5092097;28;1297;-69
2021/01/30 10:30:12;;;;;;;;;;;20.00;54.10;;;;;;5092557;28;1324;-68
2021/01/30 10:32:43;;;;;;;;;;;20.10;53.90;;;;;;5090638;28;1464;-70
2021/01/30 10:35:16;;;;;;;;;;;20.20;53.70;;;;;;5090322;28;1894;-69
2021/01/30 10:37:42;;;;;;;;;;;20.30;53.50;;;;;;5090354;28;1546;-68
2021/01/30 10:40:15;;;;;;;;;;;20.40;53.30;;;;;;5088886;28;1794;-68
2021/01/30 10:42:40;;;;;;;;;;;20.40;53.20;;;;;;5085852;28;1826;-68
2021/01/30 10:45:12;;;;;;;;;;;20.50;53.10;;;;;;5080648;28;1015;-68
2021/01/30 10:47:37;;;;;;;;;;;20.60;52.90;;;;;;5077100;28;981;-68
2021/01/30 10:50:13;;;;;;;;;;;20.60;52.80;;;;;;5075226;28;1474;-67
2021/01/30 10:52:38;;;;;;;;;;;20.70;52.70;;;;;;5087832;28;1420;-68
2021/01/30 10:55:22;;;;;;;;;;;20.70;52.60;;;;;;5074956;28;1906;-68
2021/01/30 10:57:48;;;;;;;;;;;20.80;52.60;;;;;;5079611;28;2192;-68
2021/01/30 11:00:31;;;;;;;;;;;20.80;52.50;;;;;;5074308;28;1334;-68
2021/01/30 11:02:57;;;;;;;;;;;20.80;53.00;;;;;;5081802;28;1298;-68
2021/01/30 11:05:26;;;;;;;;;;;20.80;52.30;;;;;;5075061;28;1157;-68
2021/01/30 11:07:54;;;;;;;;;;;20.90;52.30;;;;;;5074563;28;1295;-68
2021/01/30 11:10:28;;;;;;;;;;;20.90;52.30;;;;;;5078865;28;1307;-68
2021/01/30 11:12:54;;;;;;;;;;;20.90;52.30;;;;;;5074009;28;1304;-68
2021/01/30 11:15:20;;;;;;;;;;;20.90;52.30;;;;;;5075060;28;1937;-68
2021/01/30 11:17:46;;;;;;;;;;;20.90;52.90;;;;;;5082426;28;1395;-68
2021/01/30 11:20:12;;;;;;;;;;;20.90;52.30;;;;;;5075009;28;1361;-68
2021/01/30 11:22:38;;;;;;;;;;;20.90;52.30;;;;;;5073439;28;1391;-68
2021/01/30 11:25:06;;;;;;;;;;;20.90;52.20;;;;;;5073001;28;1356;-68
2021/01/30 11:27:35;;;;;;;;;;;21.00;52.30;;;;;;5074421;28;1336;-68
2021/01/30 11:30:12;;;;;;;;;;;21.00;52.30;;;;;;5079677;28;1273;-68
2021/01/30 11:32:38;;;;;;;;;;;21.00;52.20;;;;;;5094633;28;1311;-68
2021/01/30 11:35:04;;;;;;;;;;;21.00;52.10;;;;;;5073190;28;1906;-68
2021/01/30 11:37:29;;;;;;;;;;;21.00;52.10;;;;;;5073291;28;1324;-67
2021/01/30 11:39:54;;;;;;;;;;;21.10;52.10;;;;;;5073339;28;1277;-68
2021/01/30 11:42:20;;;;;;;;;;;21.10;52.00;;;;;;5074101;28;1300;-67
2021/01/30 11:44:46;;;;;;;;;;;21.10;52.00;;;;;;5087700;28;1287;-68
2021/01/30 11:47:11;;;;;;;;;;;21.10;52.00;;;;;;5074795;28;1256;-68
2021/01/30 11:49:37;;;;;;;;;;;21.20;52.00;;;;;;5073843;28;1395;-68
2021/01/30 11:52:02;;;;;;;;;;;21.20;52.00;;;;;;5086740;28;1393;-68
2021/01/30 11:54:28;;;;;;;;;;;21.20;51.90;;;;;;5072627;28;1245;-68
2021/01/30 11:56:53;;;;;;;;;;;21.20;51.90;;;;;;5074104;28;1894;-68
2021/01/30 11:59:18;;;;;;;;;;;21.20;51.90;;;;;;5093715;28;1356;-68
2021/01/30 12:01:44;;;;;;;;;;;21.30;51.90;;;;;;5080955;28;1363;-68
2021/01/30 12:04:10;;;;;;;;;;;21.30;51.90;;;;;;5073346;28;1286;-68
2021/01/30 12:06:35;;;;;;;;;;;21.30;51.80;;;;;;5072745;28;1308;-68
2021/01/30 12:09:01;;;;;;;;;;;21.30;51.80;;;;;;5073843;28;1332;-67
2021/01/30 12:11:26;;;;;;;;;;;21.30;51.70;;;;;;5073861;28;1350;-68
2021/01/30 12:13:52;;;;;;;;;;;21.30;51.70;;;;;;5073459;28;1336;-67
2021/01/30 12:16:17;;;;;;;;;;;21.30;51.70;;;;;;5082722;28;1898;-68
2021/01/30 12:18:43;;;;;;;;;;;21.30;51.70;;;;;;5087215;28;1125;-68
2021/01/30 12:21:08;;;;;;;;;;;21.30;51.80;;;;;;5073715;28;1346;-68
2021/01/30 12:23:34;;;;;;;;;;;21.30;51.80;;;;;;5073232;28;1315;-69
2021/01/30 12:25:59;;;;;;;;;;;21.30;51.90;;;;;;5085230;28;1196;-68
2021/01/30 12:28:29;;;;;;;;;;;21.30;51.90;;;;;;5073607;28;1367;-68
2021/01/30 12:30:54;;;;;;;;;;;21.30;51.90;;;;;;5073520;28;1259;-68
2021/01/30 12:33:20;;;;;;;;;;;21.20;51.90;;;;;;5071738;28;1332;-68
2021/01/30 12:35:45;;;;;;;;;;;21.20;52.00;;;;;;5073009;28;1897;-68
2021/01/30 12:38:11;;;;;;;;;;;21.20;52.00;;;;;;5073351;28;1414;-68
2021/01/30 12:40:38;;;;;;;;;;;21.20;52.10;;;;;;5072096;28;1419;-67
2021/01/30 12:43:03;;;;;;;;;;;21.20;52.10;;;;;;5073011;28;1300;-69
2021/01/30 12:45:29;;;;;;;;;;;21.20;52.20;;;;;;5071811;28;1297;-69
2021/01/30 12:47:54;;;;;;;;;;;21.10;52.20;;;;;;5072669;28;1287;-68
2021/01/30 12:50:21;;;;;;;;;;;21.10;52.30;;;;;;5071972;28;1276;-69
2021/01/30 12:52:46;;;;;;;;;;;21.10;52.30;;;;;;5086516;28;1313;-69
2021/01/30 12:55:12;;;;;;;;;;;21.10;52.40;;;;;;5072817;28;1906;-69
2021/01/30 12:57:37;;;;;;;;;;;21.00;52.40;;;;;;5078199;28;1304;-68
2021/01/30 13:00:07;;;;;;;;;;;21.00;52.40;;;;;;5093672;28;1624;-68
2021/01/30 13:02:32;;;;;;;;;;;21.00;52.50;;;;;;5091446;28;1543;-68
2021/01/30 13:04:58;;;;;;;;;;;21.00;52.50;;;;;;5092613;28;1352;-67
2021/01/30 13:07:23;;;;;;;;;;;20.90;52.50;;;;;;5093244;28;1107;-68
2021/01/30 13:09:49;;;;;;;;;;;20.90;52.60;;;;;;5093500;28;1308;-68
2021/01/30 13:12:14;;;;;;;;;;;20.90;52.60;;;;;;5093502;28;1271;-68
2021/01/30 13:14:40;;;;;;;;;;;20.90;52.70;;;;;;5093134;28;1960;-67
2021/01/30 13:17:06;;;;;;;;;;;20.90;52.80;;;;;;5058399;28;1451;-68
2021/01/30 13:19:31;;;;;;;;;;;20.80;52.80;;;;;;5072886;28;1329;-68
2021/01/30 13:21:57;;;;;;;;;;;20.80;52.80;;;;;;5072984;28;1354;-67
2021/01/30 13:24:22;;;;;;;;;;;20.80;52.90;;;;;;5072962;28;1269;-68
2021/01/30 13:26:47;;;;;;;;;;;20.80;52.90;;;;;;5072686;28;1380;-68
2021/01/30 13:29:14;;;;;;;;;;;20.80;53.00;;;;;;5073409;28;1311;-68
2021/01/30 13:31:43;;;;;;;;;;;20.80;53.00;;;;;;5071719;28;1294;-68
2021/01/30 13:34:09;;;;;;;;;;;20.70;53.00;;;;;;5071178;28;1114;-68
2021/01/30 13:36:34;;;;;;;;;;;20.70;53.10;;;;;;5072553;28;1894;-67
2021/01/30 13:39:00;;;;;;;;;;;20.70;53.20;;;;;;5071206;28;2633;-68
2021/01/30 13:41:26;;;;;;;;;;;20.70;53.20;;;;;;5071433;28;1328;-68
2021/01/30 13:43:51;;;;;;;;;;;20.70;53.20;;;;;;5072143;28;1261;-68
2021/01/30 13:46:16;;;;;;;;;;;20.70;53.30;;;;;;5071558;28;1274;-68
2021/01/30 13:48:42;;;;;;;;;;;20.60;53.30;;;;;;5072347;28;1318;-68
2021/01/30 13:51:08;;;;;;;;;;;20.60;53.30;;;;;;5076762;28;1373;-68
2021/01/30 13:53:33;;;;;;;;;;;20.60;53.40;;;;;;5080300;28;1323;-68
2021/01/30 13:55:59;;;;;;;;;;;20.60;53.40;;;;;;5072271;28;1971;-68
2021/01/30 13:58:24;;;;;;;;;;;20.60;53.50;;;;;;5084893;28;1118;-68
2021/01/30 14:00:49;;;;;;;;;;;20.50;53.40;;;;;;5073621;28;1361;-68
2021/01/30 14:03:15;;;;;;;;;;;20.50;53.50;;;;;;5073122;28;1341;-67
2021/01/30 14:05:40;;;;;;;;;;;20.50;53.50;;;;;;5072363;28;1368;-68
2021/01/30 14:08:06;;;;;;;;;;;20.50;53.60;;;;;;5072159;28;1292;-68
2021/01/30 14:10:31;;;;;;;;;;;20.50;53.60;;;;;;5071022;28;1509;-68
2021/01/30 14:12:58;;;;;;;;;;;20.40;53.60;;;;;;5071866;28;1320;-68
2021/01/30 14:15:23;;;;;;;;;;;20.50;53.70;;;;;;5077957;28;1964;-68
2021/01/30 14:17:49;;;;;;;;;;;20.40;53.70;;;;;;5094843;28;1310;-68
2021/01/30 14:20:15;;;;;;;;;;;20.40;53.80;;;;;;5077324;28;1098;-67
2021/01/30 14:22:40;;;;;;;;;;;20.40;53.80;;;;;;5076008;28;1379;-68
2021/01/30 14:25:06;;;;;;;;;;;20.40;53.90;;;;;;5077154;28;1648;-69
2021/01/30 14:27:32;;;;;;;;;;;20.40;53.90;;;;;;5087525;28;1015;-69
2021/01/30 14:29:58;;;;;;;;;;;20.40;53.90;;;;;;5077286;28;1524;-68
2021/01/30 14:32:23;;;;;;;;;;;20.30;53.90;;;;;;5076485;28;1282;-68
2021/01/30 14:34:49;;;;;;;;;;;20.30;54.00;;;;;;5075335;28;1953;-68
2021/01/30 14:37:14;;;;;;;;;;;20.30;54.00;;;;;;5074643;28;1248;-68
2021/01/30 14:39:40;;;;;;;;;;;20.30;54.00;;;;;;5076142;28;1288;-68